createdAt,value
2022-12-23T00:00:22.389Z,959.13
2022-12-23T00:01:22.063Z,958.94
2022-12-23T00:02:22.332Z,959.06
2022-12-23T00:03:22.108Z,959.00
2022-12-23T00:04:22.261Z,959.08
2022-12-23T00:05:21.901Z,959.02
2022-12-23T00:06:22.025Z,959.07
2022-12-23T00:07:21.785Z,959.09
2022-12-23T00:08:21.838Z,959.16
2022-12-23T00:09:21.851Z,959.18
2022-12-23T00:10:21.641Z,959.20
2022-12-23T00:11:22.061Z,959.20
2022-12-23T00:12:21.548Z,959.18
2022-12-23T00:13:21.674Z,959.23
2022-12-23T00:14:22.157Z,959.18
2022-12-23T00:15:21.687Z,959.20
2022-12-23T00:16:21.417Z,959.23
2022-12-23T00:17:23.295Z,959.15
2022-12-23T00:18:21.272Z,959.04
2022-12-23T00:19:21.503Z,959.10
2022-12-23T00:20:21.304Z,959.04
2022-12-23T00:21:21.134Z,958.98
2022-12-23T00:22:21.330Z,959.12
2022-12-23T00:23:21.168Z,959.18
2022-12-23T00:24:21.127Z,959.15
2022-12-23T00:25:20.947Z,959.14
2022-12-23T00:26:20.900Z,959.05
2022-12-23T00:27:20.957Z,958.98
2022-12-23T00:28:20.818Z,958.99
2022-12-23T00:29:20.965Z,959.07
2022-12-23T00:30:20.715Z,959.00
2022-12-23T00:31:20.720Z,958.96
2022-12-23T00:32:20.617Z,959.15
2022-12-23T00:33:20.798Z,959.03
2022-12-23T00:34:20.528Z,959.02
2022-12-23T00:35:20.801Z,958.98
2022-12-23T00:36:20.525Z,959.08
2022-12-23T00:37:20.388Z,959.02
2022-12-23T00:38:20.616Z,959.01
2022-12-23T00:39:20.295Z,959.03
2022-12-23T00:40:20.431Z,958.89
2022-12-23T00:41:20.220Z,959.02
2022-12-23T00:42:20.154Z,958.98
2022-12-23T00:43:20.112Z,958.91
2022-12-23T00:44:20.254Z,958.99
2022-12-23T00:45:20.029Z,959.00
2022-12-23T00:46:20.352Z,958.92
2022-12-23T00:47:20.122Z,959.09
2022-12-23T00:48:19.877Z,958.99
2022-12-23T00:49:19.832Z,959.02
2022-12-23T00:50:19.893Z,959.05
2022-12-23T00:51:19.741Z,959.05
2022-12-23T00:52:19.899Z,959.06
2022-12-23T00:53:19.682Z,958.97
2022-12-23T00:54:19.713Z,958.98
2022-12-23T00:55:19.563Z,959.04
2022-12-23T00:56:19.727Z,958.98
2022-12-23T00:57:19.475Z,958.97
2022-12-23T00:58:19.543Z,958.87
2022-12-23T00:59:19.599Z,958.84
2022-12-23T01:00:19.588Z,958.91
2022-12-23T01:01:19.374Z,958.79
2022-12-23T01:02:20.557Z,958.78
2022-12-23T01:03:19.213Z,958.73
2022-12-23T01:04:19.384Z,958.86
2022-12-23T01:05:19.259Z,958.87
2022-12-23T01:06:19.202Z,958.94
2022-12-23T01:07:19.003Z,958.86
2022-12-23T01:08:19.197Z,958.86
2022-12-23T01:09:18.907Z,958.84
2022-12-23T01:10:18.870Z,958.83
2022-12-23T01:11:19.069Z,958.86
2022-12-23T01:12:19.025Z,958.88
2022-12-23T01:13:18.719Z,958.80
2022-12-23T01:14:18.834Z,958.89
2022-12-23T01:15:18.630Z,958.96
2022-12-23T01:16:18.635Z,958.85
2022-12-23T01:17:18.946Z,958.91
2022-12-23T01:18:18.493Z,958.95
2022-12-23T01:19:18.665Z,958.89
2022-12-23T01:20:18.396Z,958.93
2022-12-23T01:21:18.355Z,958.95
2022-12-23T01:22:18.323Z,958.98
2022-12-23T01:23:18.694Z,958.96
2022-12-23T01:24:18.214Z,958.97
2022-12-23T01:25:18.321Z,959.05
2022-12-23T01:26:18.127Z,959.01
2022-12-23T01:27:18.071Z,959.11
2022-12-23T01:28:18.036Z,958.95
2022-12-23T01:29:18.130Z,958.90
2022-12-23T01:30:17.933Z,958.95
2022-12-23T01:31:18.176Z,959.05
2022-12-23T01:32:17.923Z,959.08
2022-12-23T01:33:17.950Z,959.06
2022-12-23T01:34:17.747Z,959.07
2022-12-23T01:35:18.173Z,959.06
2022-12-23T01:36:17.656Z,959.11
2022-12-23T01:37:17.780Z,959.07
2022-12-23T01:38:17.567Z,959.06
2022-12-23T01:39:17.787Z,959.01
2022-12-23T01:40:17.476Z,959.14
2022-12-23T01:41:17.602Z,959.07
2022-12-23T01:42:17.395Z,959.06
2022-12-23T01:43:17.625Z,959.21
2022-12-23T01:44:17.299Z,959.16
2022-12-23T01:45:17.419Z,959.13
2022-12-23T01:46:17.271Z,959.24
2022-12-23T01:47:17.850Z,959.28
2022-12-23T01:48:17.106Z,959.30
2022-12-23T01:49:17.070Z,959.23
2022-12-23T01:50:17.015Z,959.30
2022-12-23T01:51:17.265Z,959.25
2022-12-23T01:52:16.921Z,959.16
2022-12-23T01:53:17.078Z,959.21
2022-12-23T01:54:16.829Z,959.13
2022-12-23T01:55:16.787Z,959.15
2022-12-23T01:56:16.888Z,959.18
2022-12-23T01:57:16.691Z,959.23
2022-12-23T01:58:16.905Z,959.34
2022-12-23T01:59:16.762Z,959.45
2022-12-23T02:00:16.554Z,959.39
2022-12-23T02:01:16.539Z,959.36
2022-12-23T02:02:16.913Z,959.34
2022-12-23T02:03:16.479Z,959.54
2022-12-23T02:04:16.547Z,959.44
2022-12-23T02:05:16.366Z,959.40
2022-12-23T02:06:16.277Z,959.47
2022-12-23T02:07:16.227Z,959.50
2022-12-23T02:08:16.367Z,959.32
2022-12-23T02:09:16.143Z,959.50
2022-12-23T02:10:16.389Z,959.53
2022-12-23T02:11:16.238Z,959.50
2022-12-23T02:12:16.190Z,959.61
2022-12-23T02:13:15.955Z,959.56
2022-12-23T02:14:16.221Z,959.54
2022-12-23T02:15:15.868Z,959.51
2022-12-23T02:16:16.054Z,959.44
2022-12-23T02:17:16.269Z,959.49
2022-12-23T02:18:15.739Z,959.45
2022-12-23T02:19:15.830Z,959.44
2022-12-23T02:20:15.634Z,959.39
2022-12-23T02:21:15.854Z,959.43
2022-12-23T02:22:15.541Z,959.40
2022-12-23T02:23:15.909Z,959.44
2022-12-23T02:24:15.441Z,959.38
2022-12-23T02:25:15.673Z,959.34
2022-12-23T02:26:15.362Z,959.25
2022-12-23T02:27:15.475Z,959.33
2022-12-23T02:28:15.486Z,959.33
2022-12-23T02:29:15.245Z,959.38
2022-12-23T02:30:15.300Z,959.36
2022-12-23T02:31:15.222Z,959.38
2022-12-23T02:32:15.313Z,959.42
2022-12-23T02:33:15.047Z,959.50
2022-12-23T02:34:14.983Z,959.56
2022-12-23T02:35:15.330Z,959.55
2022-12-23T02:36:14.895Z,959.58
2022-12-23T02:37:15.144Z,959.51
2022-12-23T02:38:14.803Z,959.52
2022-12-23T02:39:14.759Z,959.44
2022-12-23T02:40:14.708Z,959.35
2022-12-23T02:41:14.987Z,959.29
2022-12-23T02:42:14.619Z,959.32
2022-12-23T02:43:14.774Z,959.29
2022-12-23T02:44:14.523Z,959.29
2022-12-23T02:45:14.487Z,959.27
2022-12-23T02:46:14.621Z,959.29
2022-12-23T02:47:14.649Z,959.30
2022-12-23T02:48:14.604Z,959.41
2022-12-23T02:49:14.291Z,959.48
2022-12-23T02:50:14.245Z,959.53
2022-12-23T02:51:14.213Z,959.55
2022-12-23T02:52:14.327Z,959.61
2022-12-23T02:53:14.119Z,959.72
2022-12-23T02:54:14.349Z,959.63
2022-12-23T02:55:14.010Z,959.61
2022-12-23T02:56:14.203Z,959.70
2022-12-23T02:57:14.170Z,959.67
2022-12-23T02:58:13.875Z,959.70
2022-12-23T02:59:13.976Z,959.61
2022-12-23T03:00:13.787Z,959.57
2022-12-23T03:01:14.031Z,959.51
2022-12-23T03:02:13.845Z,959.61
2022-12-23T03:03:13.974Z,959.71
2022-12-23T03:04:13.598Z,959.71
2022-12-23T03:05:13.820Z,959.61
2022-12-23T03:06:13.508Z,959.45
2022-12-23T03:07:18.290Z,959.48
2022-12-23T03:08:13.572Z,959.54
2022-12-23T03:09:13.531Z,959.59
2022-12-23T03:10:13.324Z,959.48
2022-12-23T03:11:13.340Z,959.41
2022-12-23T03:12:13.238Z,959.41
2022-12-23T03:13:13.202Z,959.48
2022-12-23T03:14:13.360Z,959.50
2022-12-23T03:15:13.150Z,959.37
2022-12-23T03:16:13.293Z,959.36
2022-12-23T03:17:13.010Z,959.29
2022-12-23T03:18:12.950Z,959.35
2022-12-23T03:19:13.051Z,959.32
2022-12-23T03:20:13.001Z,959.26
2022-12-23T03:21:12.823Z,959.29
2022-12-23T03:22:12.907Z,959.33
2022-12-23T03:23:12.726Z,959.30
2022-12-23T03:24:12.682Z,959.27
2022-12-23T03:25:12.826Z,959.27
2022-12-23T03:26:12.590Z,959.24
2022-12-23T03:27:12.639Z,959.32
2022-12-23T03:28:12.498Z,959.26
2022-12-23T03:29:12.447Z,959.39
2022-12-23T03:30:12.409Z,959.31
2022-12-23T03:31:12.423Z,959.28
2022-12-23T03:32:12.472Z,959.29
2022-12-23T03:33:12.269Z,959.28
2022-12-23T03:34:12.296Z,959.30
2022-12-23T03:35:12.289Z,959.28
2022-12-23T03:36:12.134Z,959.22
2022-12-23T03:37:12.309Z,959.18
2022-12-23T03:38:12.033Z,959.25
2022-12-23T03:39:12.110Z,959.33
2022-12-23T03:40:11.948Z,959.19
2022-12-23T03:41:11.920Z,959.21
2022-12-23T03:42:11.847Z,959.21
2022-12-23T03:43:11.937Z,959.18
2022-12-23T03:44:11.756Z,959.21
2022-12-23T03:45:37.625Z,959.15
2022-12-23T03:46:11.791Z,959.27
2022-12-23T03:47:11.620Z,959.13
2022-12-23T03:48:11.795Z,959.13
2022-12-23T03:49:11.622Z,959.16
2022-12-23T03:50:11.579Z,959.09
2022-12-23T03:51:11.482Z,959.15
2022-12-23T03:52:17.157Z,959.10
2022-12-23T03:53:11.370Z,959.16
2022-12-23T03:54:11.402Z,959.17
2022-12-23T03:55:11.288Z,959.14
2022-12-23T03:56:11.415Z,959.12
2022-12-23T03:57:11.225Z,959.11
2022-12-23T03:58:11.151Z,959.15
2022-12-23T03:59:11.235Z,959.16
2022-12-23T04:00:11.031Z,959.09
2022-12-23T04:01:11.292Z,959.08
2022-12-23T04:02:11.000Z,959.09
2022-12-23T04:03:10.895Z,959.08
2022-12-23T04:04:11.163Z,959.10
2022-12-23T04:05:10.799Z,959.03
2022-12-23T04:06:10.894Z,959.01
2022-12-23T04:07:10.722Z,959.14
2022-12-23T04:08:10.663Z,959.08
2022-12-23T04:09:10.615Z,959.10
2022-12-23T04:10:10.702Z,959.11
2022-12-23T04:11:10.525Z,959.09
2022-12-23T04:12:10.518Z,959.20
2022-12-23T04:13:10.566Z,959.11
2022-12-23T04:14:10.381Z,959.13
2022-12-23T04:15:13.024Z,959.14
2022-12-23T04:16:10.329Z,959.15
2022-12-23T04:17:10.364Z,959.23
2022-12-23T04:18:10.204Z,959.20
2022-12-23T04:19:10.198Z,959.28
2022-12-23T04:20:10.113Z,959.21
2022-12-23T04:21:10.181Z,959.19
2022-12-23T04:22:10.021Z,959.27
2022-12-23T04:23:10.194Z,959.25
2022-12-23T04:24:09.925Z,959.16
2022-12-23T04:25:10.043Z,959.21
2022-12-23T04:26:09.999Z,959.20
2022-12-23T04:27:09.795Z,959.18
2022-12-23T04:28:09.812Z,959.05
2022-12-23T04:29:09.819Z,959.11
2022-12-23T04:30:09.825Z,959.04
2022-12-23T04:31:09.666Z,959.04
2022-12-23T04:32:09.638Z,959.03
2022-12-23T04:33:09.516Z,959.03
2022-12-23T04:34:09.652Z,959.12
2022-12-23T04:35:09.507Z,959.04
2022-12-23T04:36:09.387Z,959.03
2022-12-23T04:37:09.343Z,959.10
2022-12-23T04:38:09.472Z,959.07
2022-12-23T04:39:09.251Z,959.09
2022-12-23T04:40:09.300Z,959.11
2022-12-23T04:41:09.264Z,959.19
2022-12-23T04:42:09.108Z,959.09
2022-12-23T04:43:09.103Z,959.16
2022-12-23T04:44:09.018Z,959.22
2022-12-23T04:45:09.113Z,959.21
2022-12-23T04:46:08.956Z,959.23
2022-12-23T04:47:09.148Z,959.22
2022-12-23T04:48:08.834Z,959.30
2022-12-23T04:49:08.954Z,959.35
2022-12-23T04:50:08.748Z,959.30
2022-12-23T04:51:08.754Z,959.16
2022-12-23T04:52:08.658Z,959.16
2022-12-23T04:53:08.654Z,959.18
2022-12-23T04:54:08.776Z,959.04
2022-12-23T04:55:08.512Z,959.07
2022-12-23T04:56:08.582Z,959.11
2022-12-23T04:57:08.429Z,959.19
2022-12-23T04:58:08.598Z,959.22
2022-12-23T04:59:08.696Z,959.13
2022-12-23T05:00:08.403Z,959.09
2022-12-23T05:01:08.287Z,959.10
2022-12-23T05:02:08.587Z,959.18
2022-12-23T05:03:08.301Z,959.09
2022-12-23T05:04:08.106Z,959.05
2022-12-23T05:05:08.253Z,959.09
2022-12-23T05:06:08.014Z,959.10
2022-12-23T05:07:08.051Z,959.09
2022-12-23T05:08:07.922Z,959.17
2022-12-23T05:09:08.068Z,959.12
2022-12-23T05:10:07.832Z,959.10
2022-12-23T05:11:08.088Z,959.10
2022-12-23T05:12:07.799Z,959.15
2022-12-23T05:13:07.890Z,959.22
2022-12-23T05:14:07.645Z,959.11
2022-12-23T05:15:07.594Z,959.05
2022-12-23T05:16:07.599Z,959.04
2022-12-23T05:17:08.169Z,959.10
2022-12-23T05:18:07.460Z,959.09
2022-12-23T05:19:07.530Z,959.19
2022-12-23T05:20:07.365Z,959.19
2022-12-23T05:21:07.325Z,959.13
2022-12-23T05:22:07.286Z,959.15
2022-12-23T05:23:07.550Z,959.12
2022-12-23T05:24:07.191Z,959.03
2022-12-23T05:25:07.361Z,959.06
2022-12-23T05:26:07.098Z,959.11
2022-12-23T05:27:07.283Z,959.11
2022-12-23T05:28:07.013Z,959.12
2022-12-23T05:29:07.187Z,959.12
2022-12-23T05:30:06.910Z,959.25
2022-12-23T05:31:07.038Z,959.12
2022-12-23T05:32:06.896Z,959.13
2022-12-23T05:33:07.045Z,959.11
2022-12-23T05:34:07.043Z,959.08
2022-12-23T05:35:07.023Z,959.12
2022-12-23T05:36:06.641Z,959.13
2022-12-23T05:37:06.831Z,959.19
2022-12-23T05:38:06.545Z,959.21
2022-12-23T05:39:06.647Z,959.33
2022-12-23T05:40:06.448Z,959.22
2022-12-23T05:41:06.667Z,959.24
2022-12-23T05:42:06.369Z,959.26
2022-12-23T05:43:06.315Z,959.31
2022-12-23T05:44:06.280Z,959.25
2022-12-23T05:45:07.302Z,959.18
2022-12-23T05:46:06.317Z,959.17
2022-12-23T05:47:06.497Z,959.11
2022-12-23T05:48:06.089Z,959.11
2022-12-23T05:49:06.096Z,959.05
2022-12-23T05:50:06.008Z,959.14
2022-12-23T05:51:06.114Z,959.11
2022-12-23T05:52:05.904Z,959.15
2022-12-23T05:53:06.130Z,959.13
2022-12-23T05:54:05.818Z,959.11
2022-12-23T05:55:05.947Z,959.19
2022-12-23T05:56:05.717Z,959.20
2022-12-23T05:57:05.750Z,959.24
2022-12-23T05:58:05.639Z,959.23
2022-12-23T05:59:05.973Z,959.23
2022-12-23T06:03:47.432Z,959.38
2022-12-23T06:04:47.000Z,959.35
2022-12-23T06:05:47.184Z,959.35
2022-12-23T06:06:46.882Z,959.33
2022-12-23T06:07:46.989Z,959.34
2022-12-23T06:08:46.796Z,959.35
2022-12-23T06:09:46.812Z,959.38
2022-12-23T06:10:47.062Z,959.44
2022-12-23T06:11:46.730Z,959.34
2022-12-23T06:12:46.609Z,959.37
2022-12-23T06:13:48.669Z,959.33
2022-12-23T06:14:46.509Z,959.34
2022-12-23T06:15:46.639Z,959.28
2022-12-23T06:16:46.470Z,959.23
2022-12-23T06:17:46.446Z,959.27
2022-12-23T06:18:46.507Z,959.35
2022-12-23T06:19:46.465Z,959.39
2022-12-23T06:20:46.241Z,959.33
2022-12-23T06:21:46.194Z,959.33
2022-12-23T06:22:46.141Z,959.40
2022-12-23T06:23:46.284Z,959.38
2022-12-23T06:24:46.081Z,959.41
2022-12-23T06:25:46.095Z,959.42
2022-12-23T06:26:45.961Z,959.41
2022-12-23T06:27:45.916Z,959.43
2022-12-23T06:28:46.121Z,959.42
2022-12-23T06:29:45.971Z,959.37
2022-12-23T06:30:45.930Z,959.40
2022-12-23T06:31:45.832Z,959.39
2022-12-23T06:32:45.945Z,959.37
2022-12-23T06:33:45.641Z,959.41
2022-12-23T06:34:45.755Z,959.43
2022-12-23T06:35:45.566Z,959.48
2022-12-23T06:36:45.563Z,959.46
2022-12-23T06:37:45.458Z,959.44
2022-12-23T06:38:45.418Z,959.44
2022-12-23T06:39:45.360Z,959.42
2022-12-23T06:40:45.412Z,959.48
2022-12-23T06:41:45.449Z,959.53
2022-12-23T06:42:45.414Z,959.50
2022-12-23T06:43:47.723Z,959.50
2022-12-23T06:44:45.137Z,959.48
2022-12-23T06:45:45.235Z,959.50
2022-12-23T06:46:45.045Z,959.45
2022-12-23T06:47:45.247Z,959.45
2022-12-23T06:48:44.962Z,959.44
2022-12-23T06:49:44.909Z,959.52
2022-12-23T06:50:44.865Z,959.52
2022-12-23T06:51:45.068Z,959.50
2022-12-23T06:52:44.769Z,959.50
2022-12-23T06:53:45.088Z,959.46
2022-12-23T06:54:44.688Z,959.36
2022-12-23T06:55:44.645Z,959.35
2022-12-23T06:56:44.599Z,959.42
2022-12-23T06:57:44.696Z,959.40
2022-12-23T06:58:44.500Z,959.33
2022-12-23T06:59:44.707Z,959.45
2022-12-23T07:00:44.406Z,959.39
2022-12-23T07:01:44.747Z,959.46
2022-12-23T07:02:44.430Z,959.27
2022-12-23T07:03:44.465Z,959.29
2022-12-23T07:04:44.232Z,959.24
2022-12-23T07:05:44.460Z,959.20
2022-12-23T07:06:44.253Z,959.26
2022-12-23T07:07:44.088Z,959.29
2022-12-23T07:08:44.261Z,959.29
2022-12-23T07:09:43.992Z,959.29
2022-12-23T07:10:44.071Z,959.31
2022-12-23T07:11:43.966Z,959.36
2022-12-23T07:12:50.369Z,959.39
2022-12-23T07:13:43.884Z,959.46
2022-12-23T07:14:43.781Z,959.47
2022-12-23T07:15:43.909Z,959.47
2022-12-23T07:16:43.714Z,959.44
2022-12-23T07:17:43.760Z,959.35
2022-12-23T07:18:43.589Z,959.41
2022-12-23T07:19:43.727Z,959.50
2022-12-23T07:20:43.494Z,959.51
2022-12-23T07:21:43.543Z,959.59
2022-12-23T07:22:43.399Z,959.66
2022-12-23T07:23:43.376Z,959.64
2022-12-23T07:24:43.311Z,959.64
2022-12-23T07:25:43.366Z,959.68
2022-12-23T07:26:43.239Z,959.56
2022-12-23T07:27:43.381Z,959.63
2022-12-23T07:28:43.129Z,959.57
2022-12-23T07:29:43.266Z,959.54
2022-12-23T07:30:43.191Z,959.49
2022-12-23T07:31:43.039Z,959.51
2022-12-23T07:32:43.209Z,959.50
2022-12-23T07:33:42.910Z,959.55
2022-12-23T07:34:42.854Z,959.62
2022-12-23T07:35:43.081Z,959.60
2022-12-23T07:36:43.031Z,959.54
2022-12-23T07:37:42.795Z,959.66
2022-12-23T07:38:42.846Z,959.65
2022-12-23T07:39:42.656Z,959.65
2022-12-23T07:40:42.658Z,959.65
2022-12-23T07:41:42.550Z,959.61
2022-12-23T07:42:46.280Z,959.64
2022-12-23T07:43:42.439Z,959.72
2022-12-23T07:44:42.589Z,959.74
2022-12-23T07:45:42.412Z,959.73
2022-12-23T07:46:42.562Z,959.70
2022-12-23T07:47:42.555Z,959.74
2022-12-23T07:48:42.302Z,959.76
2022-12-23T07:49:42.165Z,959.77
2022-12-23T07:50:42.313Z,959.72
2022-12-23T07:51:42.102Z,959.81
2022-12-23T07:52:42.326Z,959.74
2022-12-23T07:53:41.983Z,959.78
2022-12-23T07:54:42.143Z,959.76
2022-12-23T07:55:41.916Z,959.78
2022-12-23T07:56:41.854Z,959.75
2022-12-23T07:57:42.164Z,959.79
2022-12-23T07:58:41.762Z,959.74
2022-12-23T07:59:42.028Z,959.78
2022-12-23T08:00:41.677Z,959.67
2022-12-23T08:01:41.778Z,959.72
2022-12-23T08:02:41.727Z,959.66
2022-12-23T08:03:41.777Z,959.73
2022-12-23T08:04:45.992Z,959.72
2022-12-23T08:05:41.716Z,959.74
2022-12-23T08:06:41.473Z,959.70
2022-12-23T08:07:41.358Z,959.68
2022-12-23T08:08:41.574Z,959.72
2022-12-23T08:09:41.594Z,959.64
2022-12-23T08:10:47.893Z,959.70
2022-12-23T08:11:41.180Z,959.70
2022-12-23T08:12:41.127Z,959.69
2022-12-23T08:13:41.082Z,959.69
2022-12-23T08:14:41.159Z,959.73
2022-12-23T08:15:41.041Z,959.73
2022-12-23T08:16:43.844Z,959.76
2022-12-23T08:17:40.908Z,959.78
2022-12-23T08:18:41.104Z,959.74
2022-12-23T08:19:40.875Z,959.74
2022-12-23T08:20:40.997Z,959.74
2022-12-23T08:21:40.853Z,959.72
2022-12-23T08:22:40.821Z,959.76
2022-12-23T08:23:40.634Z,959.73
2022-12-23T08:24:40.828Z,959.76
2022-12-23T08:25:40.579Z,959.81
2022-12-23T08:26:40.836Z,959.79
2022-12-23T08:27:40.445Z,959.78
2022-12-23T08:28:40.405Z,959.79
2022-12-23T08:29:40.367Z,959.75
2022-12-23T08:30:40.583Z,959.75
2022-12-23T08:31:40.280Z,959.73
2022-12-23T08:32:40.682Z,959.86
2022-12-23T08:33:40.211Z,959.78
2022-12-23T08:34:40.136Z,959.92
2022-12-23T08:35:40.293Z,959.84
2022-12-23T08:36:40.061Z,959.84
2022-12-23T08:37:40.102Z,959.86
2022-12-23T08:38:40.166Z,959.84
2022-12-23T08:39:39.913Z,959.87
2022-12-23T08:40:39.867Z,959.85
2022-12-23T08:41:39.929Z,959.91
2022-12-23T08:42:39.773Z,959.84
2022-12-23T08:43:39.945Z,959.92
2022-12-23T08:44:39.690Z,959.85
2022-12-23T08:45:39.643Z,959.90
2022-12-23T08:46:40.035Z,959.82
2022-12-23T08:47:39.553Z,959.80
2022-12-23T08:48:42.583Z,959.86
2022-12-23T08:49:39.461Z,959.84
2022-12-23T08:50:39.445Z,959.92
2022-12-23T08:51:39.418Z,959.98
2022-12-23T08:52:40.414Z,960.01
2022-12-23T08:53:39.291Z,960.02
2022-12-23T08:54:39.421Z,960.09
2022-12-23T08:55:39.235Z,959.93
2022-12-23T08:56:39.178Z,960.01
2022-12-23T08:57:39.303Z,960.01
2022-12-23T08:58:39.230Z,959.95
2022-12-23T08:59:39.024Z,959.97
2022-12-23T09:00:39.299Z,959.90
2022-12-23T09:01:38.998Z,959.97
2022-12-23T09:02:39.042Z,959.98
2022-12-23T09:03:39.141Z,959.94
2022-12-23T09:04:38.831Z,959.99
2022-12-23T09:05:38.873Z,960.02
2022-12-23T09:06:38.928Z,959.93
2022-12-23T09:07:38.663Z,959.88
2022-12-23T09:08:38.621Z,959.88
2022-12-23T09:09:38.692Z,959.82
2022-12-23T09:10:38.530Z,959.86
2022-12-23T09:11:38.717Z,959.88
2022-12-23T09:12:38.459Z,959.86
2022-12-23T09:13:38.546Z,959.83
2022-12-23T09:14:38.369Z,959.87
2022-12-23T09:15:38.469Z,959.89
2022-12-23T09:16:38.302Z,959.95
2022-12-23T09:17:38.655Z,959.90
2022-12-23T09:18:38.171Z,959.95
2022-12-23T09:19:38.133Z,959.90
2022-12-23T09:20:38.273Z,959.88
2022-12-23T09:21:38.040Z,959.86
2022-12-23T09:22:38.280Z,959.85
2022-12-23T09:23:37.956Z,959.84
2022-12-23T09:24:37.912Z,959.90
2022-12-23T09:25:37.874Z,959.94
2022-12-23T09:26:38.102Z,959.86
2022-12-23T09:27:37.954Z,959.91
2022-12-23T09:28:37.921Z,959.87
2022-12-23T09:29:37.695Z,959.84
2022-12-23T09:30:37.646Z,959.82
2022-12-23T09:31:38.156Z,959.85
2022-12-23T09:32:37.574Z,959.80
2022-12-23T09:33:37.746Z,959.82
2022-12-23T09:34:37.608Z,959.82
2022-12-23T09:35:37.420Z,959.78
2022-12-23T09:36:37.376Z,959.88
2022-12-23T09:37:37.578Z,959.88
2022-12-23T09:38:37.296Z,959.89
2022-12-23T09:39:37.583Z,959.87
2022-12-23T09:40:37.213Z,959.83
2022-12-23T09:41:37.173Z,959.83
2022-12-23T09:42:37.408Z,959.76
2022-12-23T09:43:37.065Z,959.79
2022-12-23T09:44:37.436Z,959.79
2022-12-23T09:45:40.468Z,959.73
2022-12-23T09:46:37.380Z,959.78
2022-12-23T09:47:36.887Z,959.76
2022-12-23T09:48:37.041Z,959.80
2022-12-23T09:49:37.092Z,959.82
2022-12-23T09:50:36.848Z,959.81
2022-12-23T09:51:36.706Z,959.83
2022-12-23T09:52:36.694Z,959.83
2022-12-23T09:53:36.624Z,959.78
2022-12-23T09:54:36.667Z,959.83
2022-12-23T09:55:36.576Z,959.77
2022-12-23T09:56:36.688Z,959.81
2022-12-23T09:57:36.574Z,959.83
2022-12-23T09:58:36.539Z,959.83
2022-12-23T09:59:36.551Z,959.82
2022-12-23T10:00:36.308Z,959.78
2022-12-23T10:01:40.202Z,959.82
2022-12-23T10:02:36.401Z,959.77
2022-12-23T10:03:36.409Z,959.80
2022-12-23T10:04:36.193Z,959.72
2022-12-23T10:05:36.384Z,959.74
2022-12-23T10:06:36.041Z,959.76
2022-12-23T10:07:36.155Z,959.71
2022-12-23T10:08:37.266Z,959.74
2022-12-23T10:09:35.909Z,959.62
2022-12-23T10:10:35.868Z,959.58
2022-12-23T10:11:35.990Z,959.60
2022-12-23T10:12:39.872Z,959.62
2022-12-23T10:13:36.002Z,959.61
2022-12-23T10:14:35.686Z,959.67
2022-12-23T10:15:35.799Z,959.68
2022-12-23T10:16:35.666Z,959.62
2022-12-23T10:17:35.906Z,959.68
2022-12-23T10:18:35.541Z,959.66
2022-12-23T10:19:35.834Z,959.64
2022-12-23T10:20:35.414Z,959.63
2022-12-23T10:21:35.641Z,959.61
2022-12-23T10:22:35.325Z,959.66
2022-12-23T10:23:35.452Z,959.60
2022-12-23T10:24:35.242Z,959.59
2022-12-23T10:25:35.469Z,959.59
2022-12-23T10:26:35.312Z,959.61
2022-12-23T10:27:35.279Z,959.62
2022-12-23T10:28:35.073Z,959.54
2022-12-23T10:29:35.299Z,959.59
2022-12-23T10:30:57.492Z,959.63
2022-12-23T10:31:42.061Z,959.55
2022-12-23T10:32:34.960Z,959.54
2022-12-23T10:33:35.115Z,959.57
2022-12-23T10:34:38.384Z,959.55
2022-12-23T10:35:34.930Z,959.57
2022-12-23T10:36:34.740Z,959.66
2022-12-23T10:37:34.673Z,959.64
2022-12-23T10:38:34.631Z,959.62
2022-12-23T10:39:34.747Z,959.62
2022-12-23T10:40:34.812Z,959.56
2022-12-23T10:41:34.761Z,959.58
2022-12-23T10:42:34.426Z,959.67
2022-12-23T10:43:34.385Z,959.59
2022-12-23T10:44:34.588Z,959.56
2022-12-23T10:45:34.317Z,959.56
2022-12-23T10:46:34.438Z,959.52
2022-12-23T10:47:34.267Z,959.54
2022-12-23T10:48:34.166Z,959.49
2022-12-23T10:49:34.109Z,959.45
2022-12-23T10:50:34.545Z,959.41
2022-12-23T10:51:34.066Z,959.42
2022-12-23T10:52:34.131Z,959.35
2022-12-23T10:53:33.937Z,959.43
2022-12-23T10:54:33.887Z,959.37
2022-12-23T10:55:34.294Z,959.39
2022-12-23T10:56:34.055Z,959.34
2022-12-23T10:57:33.924Z,959.32
2022-12-23T10:58:33.870Z,959.26
2022-12-23T10:59:33.664Z,959.26
2022-12-23T11:00:33.649Z,959.28
2022-12-23T11:01:33.796Z,959.33
2022-12-23T11:02:33.750Z,959.34
2022-12-23T11:03:33.891Z,959.37
2022-12-23T11:04:33.437Z,959.37
2022-12-23T11:05:33.391Z,959.35
2022-12-23T11:06:37.162Z,959.35
2022-12-23T11:07:48.618Z,959.34
2022-12-23T11:08:33.261Z,959.32
2022-12-23T11:09:33.538Z,959.39
2022-12-23T11:10:33.195Z,959.37
2022-12-23T11:11:33.123Z,959.42
2022-12-23T11:12:37.272Z,959.36
2022-12-23T11:13:33.156Z,959.40
2022-12-23T11:14:33.004Z,959.36
2022-12-23T11:15:33.223Z,959.26
2022-12-23T11:16:32.920Z,959.30
2022-12-23T11:17:32.981Z,959.29
2022-12-23T11:18:35.148Z,959.35
2022-12-23T11:19:32.993Z,959.28
2022-12-23T11:20:32.719Z,959.31
2022-12-23T11:21:33.012Z,959.31
2022-12-23T11:22:32.816Z,959.35
2022-12-23T11:23:32.606Z,959.31
2022-12-23T11:24:35.341Z,959.24
2022-12-23T11:25:32.491Z,959.28
2022-12-23T11:26:32.646Z,959.19
2022-12-23T11:27:32.441Z,959.16
2022-12-23T11:28:32.704Z,959.22
2022-12-23T11:29:32.455Z,959.19
2022-12-23T11:30:32.269Z,959.15
2022-12-23T11:31:32.581Z,959.23
2022-12-23T11:32:32.184Z,959.15
2022-12-23T11:33:32.143Z,959.17
2022-12-23T11:34:32.130Z,959.20
2022-12-23T11:35:32.386Z,959.17
2022-12-23T11:36:32.007Z,959.25
2022-12-23T11:37:32.104Z,959.21
2022-12-23T11:38:31.915Z,959.19
2022-12-23T11:39:31.874Z,959.15
2022-12-23T11:40:32.129Z,959.10
2022-12-23T11:41:31.786Z,959.06
2022-12-23T11:42:31.942Z,959.11
2022-12-23T11:43:31.694Z,959.00
2022-12-23T11:44:31.649Z,958.97
2022-12-23T11:45:31.631Z,958.90
2022-12-23T11:46:31.850Z,958.94
2022-12-23T11:47:31.519Z,958.90
2022-12-23T11:48:31.673Z,958.90
2022-12-23T11:49:31.453Z,958.90
2022-12-23T11:50:31.682Z,958.88
2022-12-23T11:51:31.339Z,958.90
2022-12-23T11:52:31.709Z,958.88
2022-12-23T11:53:31.276Z,958.93
2022-12-23T11:54:31.516Z,958.88
2022-12-23T11:55:31.308Z,958.84
2022-12-23T11:56:31.130Z,958.95
2022-12-23T11:57:31.325Z,958.87
2022-12-23T11:58:31.064Z,958.85
2022-12-23T11:59:31.150Z,958.79
2022-12-23T12:00:30.951Z,958.82
2022-12-23T12:01:32.182Z,958.82
2022-12-23T12:02:30.964Z,958.76
2022-12-23T12:03:31.007Z,958.89
2022-12-23T12:04:31.027Z,958.78
2022-12-23T12:05:30.977Z,958.75
2022-12-23T12:06:30.673Z,958.79
2022-12-23T12:07:30.786Z,958.75
2022-12-23T12:08:30.576Z,958.77
2022-12-23T12:09:30.800Z,958.74
2022-12-23T12:10:30.524Z,958.73
2022-12-23T12:11:30.437Z,958.73
2022-12-23T12:12:30.426Z,958.67
2022-12-23T12:13:30.631Z,958.76
2022-12-23T12:14:30.304Z,958.76
2022-12-23T12:15:30.436Z,958.77
2022-12-23T12:16:30.455Z,958.80
2022-12-23T12:17:30.167Z,958.78
2022-12-23T12:18:30.147Z,958.81
2022-12-23T12:19:30.086Z,958.80
2022-12-23T12:20:30.162Z,958.82
2022-12-23T12:21:29.994Z,958.80
2022-12-23T12:22:29.984Z,958.82
2022-12-23T12:23:29.993Z,958.89
2022-12-23T12:24:29.856Z,958.81
2022-12-23T12:25:30.753Z,958.83
2022-12-23T12:26:29.760Z,958.78
2022-12-23T12:27:29.721Z,958.77
2022-12-23T12:28:29.868Z,958.72
2022-12-23T12:29:29.823Z,958.73
2022-12-23T12:30:29.669Z,958.82
2022-12-23T12:31:29.675Z,958.75